sensor_id;sensor_type;location;lat;lon;timestamp;temperature;humidity
29663;DHT22;16578;53.266;7.920;2022-11-20T00:00:07;5.40;74.40
29663;DHT22;16578;53.266;7.920;2022-11-20T00:02:33;5.40;74.40
29663;DHT22;16578;53.266;7.920;2022-11-20T00:04:59;5.40;74.40
29663;DHT22;16578;53.266;7.920;2022-11-20T00:07:24;5.40;74.40
29663;DHT22;16578;53.266;7.920;2022-11-20T00:09:50;5.40;74.40
29663;DHT22;16578;53.266;7.920;2022-11-20T00:12:15;5.40;74.40
29663;DHT22;16578;53.266;7.920;2022-11-20T00:14:41;5.40;74.30
29663;DHT22;16578;53.266;7.920;2022-11-20T00:17:07;5.40;74.40
29663;DHT22;16578;53.266;7.920;2022-11-20T00:19:32;5.40;74.40
29663;DHT22;16578;53.266;7.920;2022-11-20T00:21:58;5.40;74.40
29663;DHT22;16578;53.266;7.920;2022-11-20T00:24:23;5.40;74.50
29663;DHT22;16578;53.266;7.920;2022-11-20T00:26:49;5.40;74.40
29663;DHT22;16578;53.266;7.920;2022-11-20T00:29:14;5.40;74.40
29663;DHT22;16578;53.266;7.920;2022-11-20T00:31:40;5.40;74.40
29663;DHT22;16578;53.266;7.920;2022-11-20T00:34:06;5.40;74.40
29663;DHT22;16578;53.266;7.920;2022-11-20T00:36:33;5.40;74.40
29663;DHT22;16578;53.266;7.920;2022-11-20T00:38:59;5.40;74.30
29663;DHT22;16578;53.266;7.920;2022-11-20T00:41:26;5.40;74.40
29663;DHT22;16578;53.266;7.920;2022-11-20T00:43:52;5.40;74.30
29663;DHT22;16578;53.266;7.920;2022-11-20T00:46:20;5.40;74.40
29663;DHT22;16578;53.266;7.920;2022-11-20T00:48:46;5.40;74.40
29663;DHT22;16578;53.266;7.920;2022-11-20T00:51:14;5.40;74.30
29663;DHT22;16578;53.266;7.920;2022-11-20T00:53:40;5.50;74.30
29663;DHT22;16578;53.266;7.920;2022-11-20T00:56:09;5.40;74.20
29663;DHT22;16578;53.266;7.920;2022-11-20T00:58:37;5.50;74.30
29663;DHT22;16578;53.266;7.920;2022-11-20T01:03:44;5.50;74.30
29663;DHT22;16578;53.266;7.920;2022-11-20T01:08:40;5.50;74.40
29663;DHT22;16578;53.266;7.920;2022-11-20T01:11:08;5.50;74.30
29663;DHT22;16578;53.266;7.920;2022-11-20T01:13:34;5.50;74.20
29663;DHT22;16578;53.266;7.920;2022-11-20T01:16:10;5.50;74.20
29663;DHT22;16578;53.266;7.920;2022-11-20T01:18:38;5.50;74.20
29663;DHT22;16578;53.266;7.920;2022-11-20T01:21:17;5.50;74.20
29663;DHT22;16578;53.266;7.920;2022-11-20T01:23:44;5.50;74.10
29663;DHT22;16578;53.266;7.920;2022-11-20T01:26:13;5.50;74.20
29663;DHT22;16578;53.266;7.920;2022-11-20T01:28:39;5.50;74.20
29663;DHT22;16578;53.266;7.920;2022-11-20T01:31:17;5.40;74.20
29663;DHT22;16578;53.266;7.920;2022-11-20T01:33:44;5.50;74.20
29663;DHT22;16578;53.266;7.920;2022-11-20T01:36:10;5.50;74.10
29663;DHT22;16578;53.266;7.920;2022-11-20T01:38:37;5.50;74.10
29663;DHT22;16578;53.266;7.920;2022-11-20T01:41:03;5.50;74.10
29663;DHT22;16578;53.266;7.920;2022-11-20T01:43:29;5.50;74.10
29663;DHT22;16578;53.266;7.920;2022-11-20T01:51:44;5.50;74.20
29663;DHT22;16578;53.266;7.920;2022-11-20T01:54:23;5.50;74.00
29663;DHT22;16578;53.266;7.920;2022-11-20T01:56:53;5.50;74.10
29663;DHT22;16578;53.266;7.920;2022-11-20T01:59:20;5.50;74.10
29663;DHT22;16578;53.266;7.920;2022-11-20T02:01:48;5.50;74.10
29663;DHT22;16578;53.266;7.920;2022-11-20T02:04:15;5.50;74.00
29663;DHT22;16578;53.266;7.920;2022-11-20T02:06:50;5.50;74.00
29663;DHT22;16578;53.266;7.920;2022-11-20T02:09:16;5.50;74.00
29663;DHT22;16578;53.266;7.920;2022-11-20T02:11:42;5.50;74.00
29663;DHT22;16578;53.266;7.920;2022-11-20T02:14:08;5.50;74.00
29663;DHT22;16578;53.266;7.920;2022-11-20T02:16:37;5.60;74.10
29663;DHT22;16578;53.266;7.920;2022-11-20T02:19:09;5.60;74.10
29663;DHT22;16578;53.266;7.920;2022-11-20T02:21:47;5.60;74.10
29663;DHT22;16578;53.266;7.920;2022-11-20T02:24:15;5.60;74.10
29663;DHT22;16578;53.266;7.920;2022-11-20T02:26:57;5.60;74.10
29663;DHT22;16578;53.266;7.920;2022-11-20T02:29:51;5.60;74.10
29663;DHT22;16578;53.266;7.920;2022-11-20T02:32:32;5.60;74.10
29663;DHT22;16578;53.266;7.920;2022-11-20T02:35:05;5.60;74.10
29663;DHT22;16578;53.266;7.920;2022-11-20T02:37:33;5.60;74.10
29663;DHT22;16578;53.266;7.920;2022-11-20T02:40:00;5.60;74.10
29663;DHT22;16578;53.266;7.920;2022-11-20T02:42:25;5.60;74.10
29663;DHT22;16578;53.266;7.920;2022-11-20T02:44:51;5.60;74.10
29663;DHT22;16578;53.266;7.920;2022-11-20T02:47:16;5.70;74.10
29663;DHT22;16578;53.266;7.920;2022-11-20T02:49:42;5.60;74.00
29663;DHT22;16578;53.266;7.920;2022-11-20T02:52:07;5.60;73.90
29663;DHT22;16578;53.266;7.920;2022-11-20T02:54:33;5.60;73.90
29663;DHT22;16578;53.266;7.920;2022-11-20T02:56:58;5.60;73.90
29663;DHT22;16578;53.266;7.920;2022-11-20T02:59:24;5.70;73.90
29663;DHT22;16578;53.266;7.920;2022-11-20T03:01:49;5.70;74.00
29663;DHT22;16578;53.266;7.920;2022-11-20T03:04:15;5.70;74.00
29663;DHT22;16578;53.266;7.920;2022-11-20T03:06:40;5.70;74.00
29663;DHT22;16578;53.266;7.920;2022-11-20T03:09:06;5.60;74.10
29663;DHT22;16578;53.266;7.920;2022-11-20T03:11:31;5.70;74.10
29663;DHT22;16578;53.266;7.920;2022-11-20T03:13:57;5.70;74.20
29663;DHT22;16578;53.266;7.920;2022-11-20T03:16:23;5.70;74.20
29663;DHT22;16578;53.266;7.920;2022-11-20T03:18:49;5.70;75.00
29663;DHT22;16578;53.266;7.920;2022-11-20T03:21:15;5.70;74.20
29663;DHT22;16578;53.266;7.920;2022-11-20T03:23:41;5.70;74.20
29663;DHT22;16578;53.266;7.920;2022-11-20T03:26:19;5.70;74.20
29663;DHT22;16578;53.266;7.920;2022-11-20T03:28:50;5.70;74.20
29663;DHT22;16578;53.266;7.920;2022-11-20T03:31:17;5.70;74.20
29663;DHT22;16578;53.266;7.920;2022-11-20T03:33:43;5.70;74.20
29663;DHT22;16578;53.266;7.920;2022-11-20T03:36:12;5.70;74.20
29663;DHT22;16578;53.266;7.920;2022-11-20T03:38:38;5.70;74.20
29663;DHT22;16578;53.266;7.920;2022-11-20T03:41:06;5.70;74.20
29663;DHT22;16578;53.266;7.920;2022-11-20T03:43:32;5.70;74.30
29663;DHT22;16578;53.266;7.920;2022-11-20T03:45:58;5.70;74.30
29663;DHT22;16578;53.266;7.920;2022-11-20T03:48:24;5.70;74.20
29663;DHT22;16578;53.266;7.920;2022-11-20T03:50:50;5.70;74.30
29663;DHT22;16578;53.266;7.920;2022-11-20T03:53:16;5.70;74.30
29663;DHT22;16578;53.266;7.920;2022-11-20T03:55:42;5.70;74.30
29663;DHT22;16578;53.266;7.920;2022-11-20T03:58:08;5.70;74.40
29663;DHT22;16578;53.266;7.920;2022-11-20T04:00:34;5.70;74.50
29663;DHT22;16578;53.266;7.920;2022-11-20T04:03:00;5.70;74.40
29663;DHT22;16578;53.266;7.920;2022-11-20T04:05:26;5.70;74.50
29663;DHT22;16578;53.266;7.920;2022-11-20T04:07:51;5.70;74.50
29663;DHT22;16578;53.266;7.920;2022-11-20T04:10:17;5.70;74.50
29663;DHT22;16578;53.266;7.920;2022-11-20T04:12:42;5.70;74.40
29663;DHT22;16578;53.266;7.920;2022-11-20T04:15:08;5.70;74.40
29663;DHT22;16578;53.266;7.920;2022-11-20T04:17:34;5.70;74.40
29663;DHT22;16578;53.266;7.920;2022-11-20T04:20:00;5.70;74.50
29663;DHT22;16578;53.266;7.920;2022-11-20T04:22:26;5.70;74.40
29663;DHT22;16578;53.266;7.920;2022-11-20T04:24:52;5.70;74.40
29663;DHT22;16578;53.266;7.920;2022-11-20T04:27:17;5.70;74.40
29663;DHT22;16578;53.266;7.920;2022-11-20T04:29:43;5.70;74.30
29663;DHT22;16578;53.266;7.920;2022-11-20T04:32:08;5.70;74.20
29663;DHT22;16578;53.266;7.920;2022-11-20T04:34:34;5.70;74.30
29663;DHT22;16578;53.266;7.920;2022-11-20T04:37:00;5.70;74.20
29663;DHT22;16578;53.266;7.920;2022-11-20T04:39:26;5.70;74.30
29663;DHT22;16578;53.266;7.920;2022-11-20T04:41:51;5.70;74.30
29663;DHT22;16578;53.266;7.920;2022-11-20T04:44:37;5.70;74.40
29663;DHT22;16578;53.266;7.920;2022-11-20T04:47:02;5.70;74.40
29663;DHT22;16578;53.266;7.920;2022-11-20T04:49:28;5.70;74.30
29663;DHT22;16578;53.266;7.920;2022-11-20T04:51:53;5.70;74.30
29663;DHT22;16578;53.266;7.920;2022-11-20T04:54:19;5.70;74.40
29663;DHT22;16578;53.266;7.920;2022-11-20T04:56:47;5.70;74.20
29663;DHT22;16578;53.266;7.920;2022-11-20T04:59:13;5.70;74.20
29663;DHT22;16578;53.266;7.920;2022-11-20T05:01:39;5.70;74.20
29663;DHT22;16578;53.266;7.920;2022-11-20T05:04:05;5.70;74.20
29663;DHT22;16578;53.266;7.920;2022-11-20T05:06:31;5.70;74.30
29663;DHT22;16578;53.266;7.920;2022-11-20T05:08:57;5.70;74.30
29663;DHT22;16578;53.266;7.920;2022-11-20T05:11:23;5.70;74.30
29663;DHT22;16578;53.266;7.920;2022-11-20T05:13:50;5.70;74.30
29663;DHT22;16578;53.266;7.920;2022-11-20T05:16:23;5.70;74.30
29663;DHT22;16578;53.266;7.920;2022-11-20T05:18:50;5.70;74.30
29663;DHT22;16578;53.266;7.920;2022-11-20T05:21:16;5.70;74.30
29663;DHT22;16578;53.266;7.920;2022-11-20T05:23:43;5.70;74.20
29663;DHT22;16578;53.266;7.920;2022-11-20T05:26:17;5.70;74.20
29663;DHT22;16578;53.266;7.920;2022-11-20T05:28:43;5.70;74.20
29663;DHT22;16578;53.266;7.920;2022-11-20T05:31:14;5.70;74.20
29663;DHT22;16578;53.266;7.920;2022-11-20T05:33:41;5.70;74.10
29663;DHT22;16578;53.266;7.920;2022-11-20T05:36:07;5.70;74.10
29663;DHT22;16578;53.266;7.920;2022-11-20T05:38:33;5.70;74.10
29663;DHT22;16578;53.266;7.920;2022-11-20T05:41:10;5.70;74.00
29663;DHT22;16578;53.266;7.920;2022-11-20T05:43:37;5.60;74.00
29663;DHT22;16578;53.266;7.920;2022-11-20T05:46:04;5.70;74.10
29663;DHT22;16578;53.266;7.920;2022-11-20T05:48:31;5.70;74.10
29663;DHT22;16578;53.266;7.920;2022-11-20T05:50:58;5.60;74.00
29663;DHT22;16578;53.266;7.920;2022-11-20T05:53:24;5.70;74.10
29663;DHT22;16578;53.266;7.920;2022-11-20T05:56:05;5.70;74.00
29663;DHT22;16578;53.266;7.920;2022-11-20T05:58:32;5.70;74.10
29663;DHT22;16578;53.266;7.920;2022-11-20T06:01:24;5.60;74.00
29663;DHT22;16578;53.266;7.920;2022-11-20T06:03:51;5.60;73.80
29663;DHT22;16578;53.266;7.920;2022-11-20T06:06:18;5.60;74.00
29663;DHT22;16578;53.266;7.920;2022-11-20T06:08:45;5.60;73.90
29663;DHT22;16578;53.266;7.920;2022-11-20T06:11:12;5.60;74.00
29663;DHT22;16578;53.266;7.920;2022-11-20T06:13:38;5.60;74.10
29663;DHT22;16578;53.266;7.920;2022-11-20T06:16:04;5.60;74.10
29663;DHT22;16578;53.266;7.920;2022-11-20T06:18:30;5.60;74.00
29663;DHT22;16578;53.266;7.920;2022-11-20T06:21:07;5.60;74.00
29663;DHT22;16578;53.266;7.920;2022-11-20T06:23:33;5.60;74.00
29663;DHT22;16578;53.266;7.920;2022-11-20T06:26:14;5.60;73.90
29663;DHT22;16578;53.266;7.920;2022-11-20T06:28:39;5.60;73.90
29663;DHT22;16578;53.266;7.920;2022-11-20T06:31:06;5.60;73.90
29663;DHT22;16578;53.266;7.920;2022-11-20T06:33:32;5.60;73.80
29663;DHT22;16578;53.266;7.920;2022-11-20T06:36:01;5.60;73.70
29663;DHT22;16578;53.266;7.920;2022-11-20T06:38:27;5.60;73.70
29663;DHT22;16578;53.266;7.920;2022-11-20T06:40:53;5.60;73.60
29663;DHT22;16578;53.266;7.920;2022-11-20T06:43:19;5.50;73.40
29663;DHT22;16578;53.266;7.920;2022-11-20T06:45:45;5.50;73.30
29663;DHT22;16578;53.266;7.920;2022-11-20T06:48:10;5.50;73.30
29663;DHT22;16578;53.266;7.920;2022-11-20T06:50:36;5.40;73.20
29663;DHT22;16578;53.266;7.920;2022-11-20T06:53:03;5.40;73.20
29663;DHT22;16578;53.266;7.920;2022-11-20T06:55:29;5.30;73.10
29663;DHT22;16578;53.266;7.920;2022-11-20T06:57:55;5.30;73.20
29663;DHT22;16578;53.266;7.920;2022-11-20T07:00:20;5.30;73.30
29663;DHT22;16578;53.266;7.920;2022-11-20T07:02:46;5.20;73.30
29663;DHT22;16578;53.266;7.920;2022-11-20T07:05:12;5.20;73.50
29663;DHT22;16578;53.266;7.920;2022-11-20T07:07:38;5.10;73.60
29663;DHT22;16578;53.266;7.920;2022-11-20T07:10:04;5.10;73.60
29663;DHT22;16578;53.266;7.920;2022-11-20T07:12:29;5.10;73.70
29663;DHT22;16578;53.266;7.920;2022-11-20T07:14:55;5.10;73.70
29663;DHT22;16578;53.266;7.920;2022-11-20T07:17:20;5.10;73.80
29663;DHT22;16578;53.266;7.920;2022-11-20T07:19:46;5.10;73.90
29663;DHT22;16578;53.266;7.920;2022-11-20T07:22:11;5.10;74.10
29663;DHT22;16578;53.266;7.920;2022-11-20T07:24:37;5.10;74.10
29663;DHT22;16578;53.266;7.920;2022-11-20T07:27:02;5.10;74.10
29663;DHT22;16578;53.266;7.920;2022-11-20T07:29:29;5.10;74.20
29663;DHT22;16578;53.266;7.920;2022-11-20T07:31:54;5.10;74.20
29663;DHT22;16578;53.266;7.920;2022-11-20T07:34:21;5.10;74.30
29663;DHT22;16578;53.266;7.920;2022-11-20T07:36:47;5.10;74.30
29663;DHT22;16578;53.266;7.920;2022-11-20T07:39:12;5.10;74.30
29663;DHT22;16578;53.266;7.920;2022-11-20T07:41:38;5.20;74.40
29663;DHT22;16578;53.266;7.920;2022-11-20T07:44:03;5.20;74.50
29663;DHT22;16578;53.266;7.920;2022-11-20T07:46:29;5.20;74.50
29663;DHT22;16578;53.266;7.920;2022-11-20T07:48:55;5.20;74.50
29663;DHT22;16578;53.266;7.920;2022-11-20T07:51:20;5.20;74.60
29663;DHT22;16578;53.266;7.920;2022-11-20T07:53:46;5.30;74.60
29663;DHT22;16578;53.266;7.920;2022-11-20T07:56:11;5.30;74.60
29663;DHT22;16578;53.266;7.920;2022-11-20T07:58:39;5.30;74.50
29663;DHT22;16578;53.266;7.920;2022-11-20T08:01:06;5.30;74.50
29663;DHT22;16578;53.266;7.920;2022-11-20T08:03:31;5.40;74.60
29663;DHT22;16578;53.266;7.920;2022-11-20T08:06:01;5.40;74.50
29663;DHT22;16578;53.266;7.920;2022-11-20T08:08:27;5.40;74.50
29663;DHT22;16578;53.266;7.920;2022-11-20T08:10:53;5.40;74.40
29663;DHT22;16578;53.266;7.920;2022-11-20T08:13:38;5.50;74.40
29663;DHT22;16578;53.266;7.920;2022-11-20T08:16:22;5.50;74.50
29663;DHT22;16578;53.266;7.920;2022-11-20T08:18:48;5.50;74.50
29663;DHT22;16578;53.266;7.920;2022-11-20T08:21:13;5.50;74.30
29663;DHT22;16578;53.266;7.920;2022-11-20T08:23:39;5.50;74.40
29663;DHT22;16578;53.266;7.920;2022-11-20T08:26:04;5.50;74.40
29663;DHT22;16578;53.266;7.920;2022-11-20T08:28:30;5.50;74.30
29663;DHT22;16578;53.266;7.920;2022-11-20T08:31:02;5.50;74.40
29663;DHT22;16578;53.266;7.920;2022-11-20T08:33:28;5.60;74.30
29663;DHT22;16578;53.266;7.920;2022-11-20T08:35:59;5.60;74.30
29663;DHT22;16578;53.266;7.920;2022-11-20T08:38:26;5.60;74.30
29663;DHT22;16578;53.266;7.920;2022-11-20T08:40:51;5.60;74.30
29663;DHT22;16578;53.266;7.920;2022-11-20T08:43:35;5.60;74.30
29663;DHT22;16578;53.266;7.920;2022-11-20T08:46:01;5.60;74.30
29663;DHT22;16578;53.266;7.920;2022-11-20T08:48:26;5.70;74.30
29663;DHT22;16578;53.266;7.920;2022-11-20T08:50:52;5.70;74.40
29663;DHT22;16578;53.266;7.920;2022-11-20T08:53:17;5.70;74.40
29663;DHT22;16578;53.266;7.920;2022-11-20T08:55:43;5.70;74.40
29663;DHT22;16578;53.266;7.920;2022-11-20T08:58:09;5.70;74.40
29663;DHT22;16578;53.266;7.920;2022-11-20T09:00:34;5.80;74.30
29663;DHT22;16578;53.266;7.920;2022-11-20T09:03:00;5.80;74.20
29663;DHT22;16578;53.266;7.920;2022-11-20T09:05:27;5.80;74.30
29663;DHT22;16578;53.266;7.920;2022-11-20T09:07:56;5.80;74.30
29663;DHT22;16578;53.266;7.920;2022-11-20T09:10:22;5.90;74.40
29663;DHT22;16578;53.266;7.920;2022-11-20T09:12:53;5.90;74.30
29663;DHT22;16578;53.266;7.920;2022-11-20T09:15:20;6.00;74.30
29663;DHT22;16578;53.266;7.920;2022-11-20T09:17:59;6.00;74.20
29663;DHT22;16578;53.266;7.920;2022-11-20T09:20:27;6.00;74.00
29663;DHT22;16578;53.266;7.920;2022-11-20T09:22:54;6.00;74.10
29663;DHT22;16578;53.266;7.920;2022-11-20T09:25:20;6.10;74.00
29663;DHT22;16578;53.266;7.920;2022-11-20T09:27:45;6.10;73.90
29663;DHT22;16578;53.266;7.920;2022-11-20T09:30:15;6.10;73.80
29663;DHT22;16578;53.266;7.920;2022-11-20T09:32:41;6.20;73.80
29663;DHT22;16578;53.266;7.920;2022-11-20T09:35:07;6.20;73.80
29663;DHT22;16578;53.266;7.920;2022-11-20T09:37:33;6.20;73.80
29663;DHT22;16578;53.266;7.920;2022-11-20T09:39:58;6.30;73.90
29663;DHT22;16578;53.266;7.920;2022-11-20T09:45:30;6.30;73.60
29663;DHT22;16578;53.266;7.920;2022-11-20T09:48:13;6.30;73.50
29663;DHT22;16578;53.266;7.920;2022-11-20T09:50:58;6.20;73.60
29663;DHT22;16578;53.266;7.920;2022-11-20T09:56:17;6.40;73.30
29663;DHT22;16578;53.266;7.920;2022-11-20T09:58:50;6.40;73.40
29663;DHT22;16578;53.266;7.920;2022-11-20T10:01:23;6.40;73.20
29663;DHT22;16578;53.266;7.920;2022-11-20T10:06:36;6.50;73.20
29663;DHT22;16578;53.266;7.920;2022-11-20T10:09:17;6.50;73.20
29663;DHT22;16578;53.266;7.920;2022-11-20T10:14:38;6.60;72.90
29663;DHT22;16578;53.266;7.920;2022-11-20T10:17:27;6.60;72.90
29663;DHT22;16578;53.266;7.920;2022-11-20T10:25:20;6.70;72.30
29663;DHT22;16578;53.266;7.920;2022-11-20T10:30:20;6.70;72.10
29663;DHT22;16578;53.266;7.920;2022-11-20T10:33:00;6.70;72.10
29663;DHT22;16578;53.266;7.920;2022-11-20T10:38:06;6.80;72.10
29663;DHT22;16578;53.266;7.920;2022-11-20T10:40:38;6.80;72.10
29663;DHT22;16578;53.266;7.920;2022-11-20T10:43:19;6.80;72.00
29663;DHT22;16578;53.266;7.920;2022-11-20T10:45:57;6.80;71.80
29663;DHT22;16578;53.266;7.920;2022-11-20T10:48:25;6.80;71.80
29663;DHT22;16578;53.266;7.920;2022-11-20T10:51:15;6.80;71.90
29663;DHT22;16578;53.266;7.920;2022-11-20T11:01:53;6.80;71.80
29663;DHT22;16578;53.266;7.920;2022-11-20T11:06:56;6.80;72.10
29663;DHT22;16578;53.266;7.920;2022-11-20T11:09:35;6.90;72.10
29663;DHT22;16578;53.266;7.920;2022-11-20T11:12:08;6.90;72.30
29663;DHT22;16578;53.266;7.920;2022-11-20T11:14:49;7.00;73.20
29663;DHT22;16578;53.266;7.920;2022-11-20T11:17:32;7.00;72.20
29663;DHT22;16578;53.266;7.920;2022-11-20T11:20:02;7.10;72.20
29663;DHT22;16578;53.266;7.920;2022-11-20T11:22:30;7.10;72.30
29663;DHT22;16578;53.266;7.920;2022-11-20T11:24:56;7.10;72.10
29663;DHT22;16578;53.266;7.920;2022-11-20T11:27:22;7.20;71.90
29663;DHT22;16578;53.266;7.920;2022-11-20T11:29:47;7.30;71.70
29663;DHT22;16578;53.266;7.920;2022-11-20T11:32:18;7.30;71.50
29663;DHT22;16578;53.266;7.920;2022-11-20T11:35:02;7.30;71.30
29663;DHT22;16578;53.266;7.920;2022-11-20T11:37:36;7.30;71.00
29663;DHT22;16578;53.266;7.920;2022-11-20T11:40:04;7.30;71.10
29663;DHT22;16578;53.266;7.920;2022-11-20T11:42:30;7.30;71.10
29663;DHT22;16578;53.266;7.920;2022-11-20T11:44:58;7.30;71.20
29663;DHT22;16578;53.266;7.920;2022-11-20T11:47:31;7.40;71.40
29663;DHT22;16578;53.266;7.920;2022-11-20T11:55:54;7.50;71.30
29663;DHT22;16578;53.266;7.920;2022-11-20T12:04:02;7.60;71.40
29663;DHT22;16578;53.266;7.920;2022-11-20T12:06:31;7.60;71.50
29663;DHT22;16578;53.266;7.920;2022-11-20T12:08:59;7.60;71.40
29663;DHT22;16578;53.266;7.920;2022-11-20T12:14:19;7.70;71.20
29663;DHT22;16578;53.266;7.920;2022-11-20T12:16:49;7.70;70.70
29663;DHT22;16578;53.266;7.920;2022-11-20T12:19:15;7.70;70.80
29663;DHT22;16578;53.266;7.920;2022-11-20T12:24:49;7.70;70.30
29663;DHT22;16578;53.266;7.920;2022-11-20T12:30:18;7.70;70.50
29663;DHT22;16578;53.266;7.920;2022-11-20T12:33:05;7.70;70.30
29663;DHT22;16578;53.266;7.920;2022-11-20T12:40:51;7.70;70.50
29663;DHT22;16578;53.266;7.920;2022-11-20T12:43:24;7.70;70.40
29663;DHT22;16578;53.266;7.920;2022-11-20T12:52:11;7.80;70.60
29663;DHT22;16578;53.266;7.920;2022-11-20T12:55:11;7.80;70.30
29663;DHT22;16578;53.266;7.920;2022-11-20T13:00:20;7.90;70.50
29663;DHT22;16578;53.266;7.920;2022-11-20T13:08:27;8.00;70.00
29663;DHT22;16578;53.266;7.920;2022-11-20T13:11:16;8.10;70.20
29663;DHT22;16578;53.266;7.920;2022-11-20T13:19:12;8.10;69.90
29663;DHT22;16578;53.266;7.920;2022-11-20T13:21:44;8.10;69.70
29663;DHT22;16578;53.266;7.920;2022-11-20T13:27:03;8.10;69.60
29663;DHT22;16578;53.266;7.920;2022-11-20T13:29:30;8.10;69.60
29663;DHT22;16578;53.266;7.920;2022-11-20T13:32:16;8.20;69.80
29663;DHT22;16578;53.266;7.920;2022-11-20T13:34:57;8.10;69.30
29663;DHT22;16578;53.266;7.920;2022-11-20T13:42:40;8.10;68.90
29663;DHT22;16578;53.266;7.920;2022-11-20T13:45:20;8.10;69.00
29663;DHT22;16578;53.266;7.920;2022-11-20T13:47:50;8.10;69.10
29663;DHT22;16578;53.266;7.920;2022-11-20T13:50:16;8.00;69.10
29663;DHT22;16578;53.266;7.920;2022-11-20T13:52:58;8.00;69.10
29663;DHT22;16578;53.266;7.920;2022-11-20T13:55:45;8.00;68.80
29663;DHT22;16578;53.266;7.920;2022-11-20T14:01:15;7.90;69.00
29663;DHT22;16578;53.266;7.920;2022-11-20T14:03:42;7.90;68.80
29663;DHT22;16578;53.266;7.920;2022-11-20T14:08:53;7.80;68.60
29663;DHT22;16578;53.266;7.920;2022-11-20T14:11:45;7.80;68.80
29663;DHT22;16578;53.266;7.920;2022-11-20T14:14:23;7.80;68.70
29663;DHT22;16578;53.266;7.920;2022-11-20T14:16:50;7.70;68.60
29663;DHT22;16578;53.266;7.920;2022-11-20T14:19:26;7.70;68.80
29663;DHT22;16578;53.266;7.920;2022-11-20T14:22:14;7.70;68.70
29663;DHT22;16578;53.266;7.920;2022-11-20T14:24:41;7.60;68.70
29663;DHT22;16578;53.266;7.920;2022-11-20T14:27:16;7.60;68.70
29663;DHT22;16578;53.266;7.920;2022-11-20T14:29:44;7.50;68.50
29663;DHT22;16578;53.266;7.920;2022-11-20T14:32:10;7.50;68.50
29663;DHT22;16578;53.266;7.920;2022-11-20T14:34:39;7.40;68.50
29663;DHT22;16578;53.266;7.920;2022-11-20T14:37:11;7.40;68.40
29663;DHT22;16578;53.266;7.920;2022-11-20T14:39:41;7.30;68.30
29663;DHT22;16578;53.266;7.920;2022-11-20T14:42:16;7.30;68.40
29663;DHT22;16578;53.266;7.920;2022-11-20T14:44:42;7.30;68.50
29663;DHT22;16578;53.266;7.920;2022-11-20T14:47:15;7.20;68.60
29663;DHT22;16578;53.266;7.920;2022-11-20T14:49:43;7.20;68.50
29663;DHT22;16578;53.266;7.920;2022-11-20T14:52:14;7.20;68.50
29663;DHT22;16578;53.266;7.920;2022-11-20T14:54:48;7.10;68.30
29663;DHT22;16578;53.266;7.920;2022-11-20T14:57:26;7.10;68.30
29663;DHT22;16578;53.266;7.920;2022-11-20T15:00:03;7.00;68.00
29663;DHT22;16578;53.266;7.920;2022-11-20T15:02:30;7.00;68.20
29663;DHT22;16578;53.266;7.920;2022-11-20T15:05:01;6.90;68.10
29663;DHT22;16578;53.266;7.920;2022-11-20T15:07:34;6.90;67.90
29663;DHT22;16578;53.266;7.920;2022-11-20T15:10:08;6.80;68.00
29663;DHT22;16578;53.266;7.920;2022-11-20T15:12:37;6.80;68.00
29663;DHT22;16578;53.266;7.920;2022-11-20T15:15:03;6.80;68.00
29663;DHT22;16578;53.266;7.920;2022-11-20T15:17:32;6.70;68.00
29663;DHT22;16578;53.266;7.920;2022-11-20T15:19:59;6.70;68.10
29663;DHT22;16578;53.266;7.920;2022-11-20T15:22:25;6.70;68.10
29663;DHT22;16578;53.266;7.920;2022-11-20T15:24:50;6.60;67.90
29663;DHT22;16578;53.266;7.920;2022-11-20T15:27:16;6.60;67.90
29663;DHT22;16578;53.266;7.920;2022-11-20T15:29:42;6.60;67.90
29663;DHT22;16578;53.266;7.920;2022-11-20T15:32:08;6.60;67.90
29663;DHT22;16578;53.266;7.920;2022-11-20T15:34:34;6.50;67.90
29663;DHT22;16578;53.266;7.920;2022-11-20T15:36:59;6.50;68.00
29663;DHT22;16578;53.266;7.920;2022-11-20T15:39:25;6.50;68.10
29663;DHT22;16578;53.266;7.920;2022-11-20T15:41:50;6.50;68.20
29663;DHT22;16578;53.266;7.920;2022-11-20T15:44:16;6.40;67.80
29663;DHT22;16578;53.266;7.920;2022-11-20T15:46:42;6.40;67.80
29663;DHT22;16578;53.266;7.920;2022-11-20T15:49:15;6.40;67.60
29663;DHT22;16578;53.266;7.920;2022-11-20T15:51:43;6.30;67.60
29663;DHT22;16578;53.266;7.920;2022-11-20T15:54:12;6.30;67.70
29663;DHT22;16578;53.266;7.920;2022-11-20T15:56:38;6.30;67.70
29663;DHT22;16578;53.266;7.920;2022-11-20T15:59:04;6.20;67.60
29663;DHT22;16578;53.266;7.920;2022-11-20T16:01:30;6.20;67.50
29663;DHT22;16578;53.266;7.920;2022-11-20T16:03:56;6.20;67.50
29663;DHT22;16578;53.266;7.920;2022-11-20T16:06:21;6.10;67.40
29663;DHT22;16578;53.266;7.920;2022-11-20T16:08:47;6.10;67.40
29663;DHT22;16578;53.266;7.920;2022-11-20T16:11:14;6.10;67.50
29663;DHT22;16578;53.266;7.920;2022-11-20T16:13:40;6.00;67.50
29663;DHT22;16578;53.266;7.920;2022-11-20T16:16:35;6.00;67.50
29663;DHT22;16578;53.266;7.920;2022-11-20T16:19:01;6.00;67.60
29663;DHT22;16578;53.266;7.920;2022-11-20T16:21:28;5.90;67.60
29663;DHT22;16578;53.266;7.920;2022-11-20T16:23:59;5.90;67.70
29663;DHT22;16578;53.266;7.920;2022-11-20T16:26:25;5.70;67.60
29663;DHT22;16578;53.266;7.920;2022-11-20T16:28:50;5.80;68.00
29663;DHT22;16578;53.266;7.920;2022-11-20T16:31:17;5.80;67.90
29663;DHT22;16578;53.266;7.920;2022-11-20T16:33:49;5.80;68.00
29663;DHT22;16578;53.266;7.920;2022-11-20T16:36:15;5.80;67.90
29663;DHT22;16578;53.266;7.920;2022-11-20T16:38:41;5.80;67.90
29663;DHT22;16578;53.266;7.920;2022-11-20T16:41:08;5.80;68.00
29663;DHT22;16578;53.266;7.920;2022-11-20T16:43:44;5.80;68.00
29663;DHT22;16578;53.266;7.920;2022-11-20T16:46:10;5.70;68.00
29663;DHT22;16578;53.266;7.920;2022-11-20T16:48:36;5.80;68.10
29663;DHT22;16578;53.266;7.920;2022-11-20T16:51:01;5.70;68.00
29663;DHT22;16578;53.266;7.920;2022-11-20T16:53:27;5.70;68.00
29663;DHT22;16578;53.266;7.920;2022-11-20T16:55:52;5.70;68.00
29663;DHT22;16578;53.266;7.920;2022-11-20T16:58:18;5.70;68.00
29663;DHT22;16578;53.266;7.920;2022-11-20T17:00:43;5.70;68.10
29663;DHT22;16578;53.266;7.920;2022-11-20T17:03:10;5.70;68.20
29663;DHT22;16578;53.266;7.920;2022-11-20T17:05:36;5.60;68.20
29663;DHT22;16578;53.266;7.920;2022-11-20T17:08:01;5.60;68.20
29663;DHT22;16578;53.266;7.920;2022-11-20T17:10:27;5.60;68.30
29663;DHT22;16578;53.266;7.920;2022-11-20T17:12:52;5.60;68.20
29663;DHT22;16578;53.266;7.920;2022-11-20T17:15:18;5.60;68.30
29663;DHT22;16578;53.266;7.920;2022-11-20T17:17:44;5.50;68.20
29663;DHT22;16578;53.266;7.920;2022-11-20T17:20:10;5.60;68.30
29663;DHT22;16578;53.266;7.920;2022-11-20T17:22:36;5.50;69.00
29663;DHT22;16578;53.266;7.920;2022-11-20T17:25:02;5.50;68.10
29663;DHT22;16578;53.266;7.920;2022-11-20T17:27:28;5.50;68.00
29663;DHT22;16578;53.266;7.920;2022-11-20T17:29:53;5.40;68.00
29663;DHT22;16578;53.266;7.920;2022-11-20T17:32:19;5.40;68.00
29663;DHT22;16578;53.266;7.920;2022-11-20T17:34:45;5.30;67.90
29663;DHT22;16578;53.266;7.920;2022-11-20T17:37:10;5.30;67.90